createdAt,value
2023-04-15T00:03:34.605Z,18.70
2023-04-15T00:08:41.940Z,18.70
2023-04-15T00:13:49.423Z,18.70
2023-04-15T00:18:52.956Z,18.70
2023-04-15T00:23:56.745Z,18.70
2023-04-15T00:29:01.974Z,18.70
2023-04-15T00:34:08.748Z,18.70
2023-04-15T00:39:12.252Z,18.70
2023-04-15T00:44:18.929Z,18.70
2023-04-15T00:49:22.574Z,18.70
2023-04-15T00:54:26.717Z,18.70
2023-04-15T00:59:32.901Z,18.70
2023-04-15T01:04:37.750Z,18.70
2023-04-15T01:09:42.108Z,18.70
2023-04-15T01:14:47.406Z,18.70
2023-04-15T01:19:54.786Z,18.70
2023-04-15T01:25:15.326Z,18.70
2023-04-15T01:30:22.980Z,18.70
2023-04-15T01:35:29.522Z,18.70
2023-04-15T01:40:36.147Z,18.70
2023-04-15T01:45:40.992Z,18.70
2023-04-15T01:50:47.912Z,18.70
2023-04-15T01:55:51.991Z,18.70
2023-04-15T02:00:57.067Z,18.70
2023-04-15T02:06:00.844Z,18.70
2023-04-15T02:11:05.573Z,18.70
2023-04-15T02:16:18.840Z,18.70
2023-04-15T02:21:25.200Z,18.70
2023-04-15T02:26:32.108Z,18.70
2023-04-15T02:31:40.577Z,18.70
2023-04-15T02:36:45.454Z,18.70
2023-04-15T02:41:54.833Z,18.70
2023-04-15T02:47:00.480Z,18.70
2023-04-15T02:52:04.037Z,18.70
2023-04-15T02:57:07.551Z,18.70
2023-04-15T03:02:13.004Z,18.70
2023-04-15T03:07:16.755Z,18.70
2023-04-15T03:12:20.366Z,18.70
2023-04-15T03:17:26.976Z,18.70
2023-04-15T03:22:33.204Z,18.70
2023-04-15T03:27:36.931Z,18.70
2023-04-15T03:32:42.256Z,18.70
2023-04-15T03:37:46.012Z,18.70
2023-04-15T03:42:56.661Z,18.70
2023-04-15T03:48:15.631Z,18.70
2023-04-15T03:53:24.393Z,18.70
2023-04-15T03:58:28.132Z,18.70
2023-04-15T04:03:33.750Z,18.70
2023-04-15T04:08:40.338Z,18.70
2023-04-15T04:13:43.928Z,18.60
2023-04-15T04:18:51.507Z,18.60
2023-04-15T04:23:55.041Z,18.70
2023-04-15T04:28:58.774Z,18.60
2023-04-15T04:34:04.024Z,18.70
2023-04-15T04:39:07.933Z,18.70
2023-04-15T04:44:11.750Z,18.70
2023-04-15T04:49:16.625Z,18.60
2023-04-15T04:54:20.092Z,18.60
2023-04-15T04:59:23.753Z,18.60
2023-04-15T05:04:32.220Z,18.70
2023-04-15T05:09:36.717Z,18.70
2023-04-15T05:14:40.177Z,18.70
2023-04-15T05:19:45.090Z,18.60
2023-04-15T05:24:48.664Z,18.70
2023-04-15T05:29:52.228Z,18.70
2023-04-15T05:34:57.089Z,18.60
2023-04-15T05:40:01.040Z,18.60
2023-04-15T05:45:05.564Z,18.60
2023-04-15T05:50:12.159Z,18.60
2023-04-15T05:55:15.638Z,18.60
2023-04-15T06:00:20.109Z,18.60
2023-04-15T06:05:25.211Z,18.70
2023-04-15T06:10:29.100Z,18.60
2023-04-15T06:15:35.937Z,18.70
2023-04-15T06:20:41.781Z,18.60
2023-04-15T06:25:45.793Z,18.70
2023-04-15T06:30:49.552Z,18.70
2023-04-15T06:35:54.392Z,18.70
2023-04-15T06:40:57.883Z,18.70
2023-04-15T06:46:01.465Z,18.70
2023-04-15T06:51:06.869Z,18.70
2023-04-15T06:56:10.967Z,18.70
2023-04-15T07:01:15.053Z,18.70
2023-04-15T07:06:22.948Z,18.70
2023-04-15T07:11:28.077Z,18.70
2023-04-15T07:16:31.700Z,18.70
2023-04-15T07:21:48.859Z,18.70
2023-04-15T07:26:52.468Z,18.70
2023-04-15T07:31:57.140Z,18.70
2023-04-15T07:37:02.079Z,18.70
2023-04-15T07:42:05.717Z,18.70
2023-04-15T07:47:09.136Z,18.70
2023-04-15T07:52:13.967Z,18.80
2023-04-15T07:57:18.412Z,18.70
2023-04-15T08:02:22.400Z,18.80
2023-04-15T08:07:27.505Z,18.70
2023-04-15T08:12:31.561Z,18.80
2023-04-15T08:17:35.025Z,18.70
2023-04-15T08:22:39.965Z,18.70
2023-04-15T08:27:43.424Z,18.80
2023-04-15T08:32:48.042Z,18.80
2023-04-15T08:37:53.072Z,18.80
2023-04-15T08:42:59.407Z,18.80
2023-04-15T08:48:07.167Z,18.80
2023-04-15T08:53:12.924Z,18.80
2023-04-15T08:58:17.744Z,18.80
2023-04-15T09:03:23.720Z,18.80
2023-04-15T09:08:28.798Z,18.80
2023-04-15T09:13:32.633Z,18.80
2023-04-15T09:18:39.904Z,18.80
2023-04-15T09:23:58.617Z,18.90
2023-04-15T09:29:09.685Z,18.80
2023-04-15T09:34:13.512Z,18.80
2023-04-15T09:39:18.430Z,18.80
2023-04-15T09:44:25.159Z,18.90
2023-04-15T09:49:29.882Z,18.90
2023-04-15T09:54:39.994Z,18.90
2023-04-15T09:59:43.471Z,18.90
2023-04-15T10:04:50.029Z,18.90
2023-04-15T10:09:55.949Z,18.90
2023-04-15T10:15:04.923Z,18.90
2023-04-15T10:20:12.534Z,18.90
2023-04-15T10:25:17.763Z,18.90
2023-04-15T10:30:22.013Z,18.90
2023-04-15T10:35:26.413Z,18.90
2023-04-15T10:40:33.452Z,18.90
2023-04-15T10:45:38.935Z,18.90
2023-04-15T10:50:42.405Z,18.90
2023-04-15T10:55:47.308Z,18.90
2023-04-15T11:00:54.845Z,18.90
2023-04-15T11:05:58.292Z,18.90
2023-04-15T11:11:03.101Z,18.90
2023-04-15T11:16:07.494Z,18.90
2023-04-15T11:21:11.156Z,18.90
2023-04-15T11:26:16.274Z,18.90
2023-04-15T11:31:21.066Z,18.90
2023-04-15T11:36:28.255Z,18.90
2023-04-15T11:41:33.262Z,18.90
2023-04-15T11:46:36.789Z,18.90
2023-04-15T11:51:40.419Z,18.90
2023-04-15T11:56:52.838Z,18.90
2023-04-15T12:01:56.444Z,19.00
2023-04-15T12:07:07.536Z,18.90
2023-04-15T12:12:12.757Z,19.00
2023-04-15T12:17:16.677Z,19.00
2023-04-15T12:22:20.576Z,19.00
2023-04-15T12:27:29.810Z,19.00
2023-04-15T12:32:37.537Z,19.00
2023-04-15T12:37:41.140Z,19.00
2023-04-15T12:42:45.968Z,19.00
2023-04-15T12:47:49.894Z,19.00
2023-04-15T12:52:53.385Z,19.00
2023-04-15T12:57:58.394Z,19.00
2023-04-15T13:03:03.458Z,19.00
2023-04-15T13:08:08.587Z,19.00
2023-04-15T13:13:13.384Z,19.00
2023-04-15T13:18:16.993Z,19.00
2023-04-15T13:23:20.437Z,19.10
2023-04-15T13:28:25.327Z,19.10
2023-04-15T13:33:29.009Z,19.10
2023-04-15T13:38:32.524Z,19.10
2023-04-15T13:43:37.580Z,19.10
2023-04-15T13:48:41.149Z,19.10
2023-04-15T13:53:44.610Z,19.10
2023-04-15T13:58:49.478Z,19.20
2023-04-15T14:03:53.026Z,19.20
2023-04-15T14:08:56.703Z,19.20
2023-04-15T14:14:01.586Z,19.20
2023-04-15T14:19:05.332Z,19.20
2023-04-15T14:24:09.142Z,19.30
2023-04-15T14:29:14.251Z,19.30
2023-04-15T14:34:18.007Z,19.30
2023-04-15T14:39:21.627Z,19.30
2023-04-15T14:44:26.499Z,19.30
2023-04-15T14:49:30.440Z,19.40
2023-04-15T14:54:33.955Z,19.40
2023-04-15T14:59:38.743Z,19.50
2023-04-15T15:04:42.306Z,19.60
2023-04-15T15:09:46.176Z,19.60
2023-04-15T15:14:51.171Z,19.60
2023-04-15T15:19:54.707Z,19.60
2023-04-15T15:24:59.189Z,19.70
2023-04-15T15:30:04.399Z,19.80
2023-04-15T15:35:09.252Z,19.80
2023-04-15T15:40:14.185Z,19.90
2023-04-15T15:45:19.437Z,19.90
2023-04-15T15:50:22.938Z,20.00
2023-04-15T15:55:27.220Z,20.10
2023-04-15T16:00:32.093Z,20.10
2023-04-15T16:05:35.940Z,20.10
2023-04-15T16:10:39.890Z,20.20
2023-04-15T16:15:44.823Z,20.20
2023-04-15T16:20:48.256Z,20.20
2023-04-15T16:25:53.138Z,20.20
2023-04-15T16:30:58.313Z,20.20
2023-04-15T16:36:01.966Z,20.20
2023-04-15T16:41:05.582Z,20.20
2023-04-15T16:46:10.597Z,20.20
2023-04-15T16:51:14.183Z,20.20
2023-04-15T16:56:17.744Z,20.20
2023-04-15T17:01:23.421Z,20.10
2023-04-15T17:06:26.983Z,20.10
2023-04-15T17:11:31.301Z,20.00
2023-04-15T17:16:36.247Z,20.00
2023-04-15T17:21:39.725Z,20.00
2023-04-15T17:26:43.148Z,19.90
2023-04-15T17:31:48.097Z,19.90
2023-04-15T17:36:53.557Z,19.90
2023-04-15T17:41:58.816Z,19.80
2023-04-15T17:47:03.969Z,19.80
2023-04-15T17:52:08.002Z,19.80
2023-04-15T17:57:11.460Z,19.70
2023-04-15T18:02:17.016Z,19.70
2023-04-15T18:07:20.778Z,19.70
2023-04-15T18:12:24.342Z,19.70
2023-04-15T18:17:29.523Z,19.70
2023-04-15T18:22:33.140Z,19.70
2023-04-15T18:27:39.288Z,19.70
2023-04-15T18:32:44.566Z,19.70
2023-04-15T18:37:48.199Z,19.60
2023-04-15T18:42:52.556Z,19.60
2023-04-15T18:47:57.553Z,19.60
2023-04-15T18:53:01.120Z,19.50
2023-04-15T18:58:08.692Z,19.50
2023-04-15T19:03:14.768Z,19.50
2023-04-15T19:08:18.301Z,19.50
2023-04-15T19:13:22.960Z,19.50
2023-04-15T19:18:28.079Z,19.50
2023-04-15T19:23:32.729Z,19.50
2023-04-15T19:28:36.371Z,19.50
2023-04-15T19:33:41.234Z,19.50
2023-04-15T19:38:45.026Z,19.50
2023-04-15T19:43:48.503Z,19.60
2023-04-15T19:48:53.812Z,19.60
2023-04-15T19:53:57.361Z,19.50
2023-04-15T19:59:01.762Z,19.50
2023-04-15T20:04:06.962Z,19.50
2023-04-15T20:09:11.530Z,19.60
2023-04-15T20:14:15.131Z,19.50
2023-04-15T20:19:20.117Z,19.50
2023-04-15T20:24:24.279Z,19.50
2023-04-15T20:29:27.809Z,19.50
2023-04-15T20:34:32.616Z,19.50
2023-04-15T20:39:36.140Z,19.50
2023-04-15T20:44:39.844Z,19.50
2023-04-15T20:49:44.844Z,19.50
2023-04-15T20:54:48.289Z,19.50
2023-04-15T20:59:52.101Z,19.50
2023-04-15T21:04:59.182Z,19.50
2023-04-15T21:10:02.663Z,19.50
2023-04-15T21:15:07.674Z,19.50
2023-04-15T21:20:14.333Z,19.50
2023-04-15T21:25:17.781Z,19.50
2023-04-15T21:30:23.672Z,19.50
2023-04-15T21:35:30.241Z,19.40
2023-04-15T21:40:40.207Z,19.40
2023-04-15T21:46:23.537Z,19.40
2023-04-15T21:51:11.383Z,19.40
2023-04-15T21:56:15.124Z,19.50
2023-04-15T22:01:19.014Z,19.40
2023-04-15T22:06:23.978Z,19.40
2023-04-15T22:11:28.431Z,19.40
2023-04-15T22:16:32.245Z,19.40
2023-04-15T22:21:37.185Z,19.40
2023-04-15T22:26:40.778Z,19.40
2023-04-15T22:31:44.473Z,19.40
2023-04-15T22:36:49.617Z,19.40
2023-04-15T22:41:53.141Z,19.40
2023-04-15T22:46:56.672Z,19.40
2023-04-15T22:52:01.845Z,19.40
2023-04-15T22:57:05.535Z,19.40
2023-04-15T23:02:09.253Z,19.40
2023-04-15T23:07:14.219Z,19.40
2023-04-15T23:12:17.965Z,19.40
2023-04-15T23:17:21.608Z,19.40
2023-04-15T23:22:26.562Z,19.40
2023-04-15T23:27:30.577Z,19.40
2023-04-15T23:32:34.211Z,19.40
2023-04-15T23:37:41.768Z,19.40
2023-04-15T23:42:45.442Z,19.40
2023-04-15T23:47:50.295Z,19.40
2023-04-15T23:52:55.856Z,19.30
2023-04-15T23:57:59.318Z,19.30
